Time;durP1;ratioP1;P1;durP2;ratioP2;P2;SDS_P1;SDS_P2;PMS_P1;PMS_P2;Temp;Humidity;BMP_temperature;BMP_pressure;BME280_temperature;BME280_humidity;BME280_pressure;Samples;Min_cycle;Max_cycle;Signal;HPM_P1;HPM_P2
2024/01/14 00:01:47;;;;;;;;;;;4.50;99.90;;;;;;5084374;28;19924;-62
2024/01/14 00:04:13;;;;;;;;;;;4.50;99.90;;;;;;5069779;28;19928;-61
2024/01/14 00:06:38;;;;;;;;;;;4.40;99.90;;;;;;5064670;28;19924;-62
2024/01/14 00:09:04;;;;;;;;;;;4.50;99.90;;;;;;5080960;28;20405;-62
2024/01/14 00:11:29;;;;;;;;;;;4.50;99.90;;;;;;5083878;28;19924;-60
2024/01/14 00:13:55;;;;;;;;;;;4.50;99.90;;;;;;5064041;28;19932;-61
2024/01/14 00:16:21;;;;;;;;;;;4.50;99.90;;;;;;5082817;28;20715;-62
2024/01/14 00:18:46;;;;;;;;;;;4.50;99.90;;;;;;5092783;28;19924;-61
2024/01/14 00:21:12;;;;;;;;;;;4.40;99.90;;;;;;5073660;28;19961;-62
2024/01/14 00:23:37;;;;;;;;;;;4.50;99.90;;;;;;5082469;27;19927;-62
2024/01/14 00:26:03;;;;;;;;;;;4.40;99.90;;;;;;5084888;28;19930;-61
2024/01/14 00:28:29;;;;;;;;;;;4.40;99.90;;;;;;5056551;28;19961;-62
2024/01/14 00:30:54;;;;;;;;;;;4.40;99.90;;;;;;5042519;28;21133;-61
2024/01/14 00:33:20;;;;;;;;;;;4.40;99.90;;;;;;5048106;28;19931;-61
2024/01/14 00:35:46;;;;;;;;;;;4.40;99.90;;;;;;5067239;28;20458;-61
2024/01/14 00:38:13;;;;;;;;;;;4.30;99.90;;;;;;5091300;28;19924;-61
2024/01/14 00:40:39;;;;;;;;;;;4.40;99.90;;;;;;5089520;28;20381;-62
2024/01/14 00:43:04;;;;;;;;;;;4.30;99.90;;;;;;5081311;28;19924;-62
2024/01/14 00:45:30;;;;;;;;;;;4.30;99.90;;;;;;5064249;28;20018;-62
2024/01/14 00:47:55;;;;;;;;;;;4.30;99.90;;;;;;5063639;28;19928;-61
2024/01/14 00:50:21;;;;;;;;;;;4.30;99.90;;;;;;5076132;28;20022;-61
2024/01/14 00:52:47;;;;;;;;;;;4.30;99.90;;;;;;5080179;28;19932;-61
2024/01/14 00:55:13;;;;;;;;;;;4.30;99.90;;;;;;5081235;28;19954;-59
2024/01/14 00:57:38;;;;;;;;;;;4.30;99.90;;;;;;5079983;28;20022;-61
2024/01/14 01:00:05;;;;;;;;;;;4.30;99.90;;;;;;5083356;28;19975;-61
2024/01/14 01:02:31;;;;;;;;;;;4.30;99.90;;;;;;5073085;28;20443;-61
2024/01/14 01:04:56;;;;;;;;;;;4.20;99.90;;;;;;5081874;28;19930;-62
2024/01/14 01:07:22;;;;;;;;;;;4.20;99.90;;;;;;5077288;28;19924;-61
2024/01/14 01:09:47;;;;;;;;;;;4.20;99.90;;;;;;5082867;28;19935;-62
2024/01/14 01:12:13;;;;;;;;;;;4.20;99.90;;;;;;5083758;28;19978;-61
2024/01/14 01:14:39;;;;;;;;;;;4.10;99.90;;;;;;5076300;28;20366;-61
2024/01/14 01:17:04;;;;;;;;;;;4.10;99.90;;;;;;5080311;28;19945;-62
2024/01/14 01:19:30;;;;;;;;;;;4.10;99.90;;;;;;5075358;28;20043;-61
2024/01/14 01:21:55;;;;;;;;;;;4.00;99.90;;;;;;5072350;28;19976;-61
2024/01/14 01:24:21;;;;;;;;;;;4.10;99.90;;;;;;5083665;28;19928;-61
2024/01/14 01:26:46;;;;;;;;;;;4.00;99.90;;;;;;5081348;28;19924;-62
2024/01/14 01:29:12;;;;;;;;;;;4.00;99.90;;;;;;5086443;28;19928;-62
2024/01/14 01:31:38;;;;;;;;;;;4.10;99.90;;;;;;5078986;28;19938;-61
2024/01/14 01:34:03;;;;;;;;;;;4.00;99.90;;;;;;5081326;28;19975;-61
2024/01/14 01:36:29;;;;;;;;;;;4.00;99.90;;;;;;5082124;28;20281;-61
2024/01/14 01:38:55;;;;;;;;;;;4.00;99.90;;;;;;5077367;28;19934;-62
2024/01/14 01:41:22;;;;;;;;;;;3.90;99.90;;;;;;5080964;28;19928;-62
2024/01/14 01:43:47;;;;;;;;;;;3.90;99.90;;;;;;5075537;28;19924;-62
2024/01/14 01:46:13;;;;;;;;;;;3.90;99.90;;;;;;5076120;28;20354;-60
2024/01/14 01:48:38;;;;;;;;;;;3.80;99.90;;;;;;5074858;28;20504;-61
2024/01/14 01:51:05;;;;;;;;;;;3.80;99.90;;;;;;5070235;27;20748;-62
2024/01/14 01:53:31;;;;;;;;;;;3.70;99.90;;;;;;5097063;27;19931;-60
2024/01/14 01:55:57;;;;;;;;;;;3.70;99.90;;;;;;5068258;27;19961;-61
2024/01/14 01:58:22;;;;;;;;;;;3.70;99.90;;;;;;5080680;27;19935;-61
2024/01/14 02:00:48;;;;;;;;;;;3.70;99.90;;;;;;5079643;27;19979;-62
2024/01/14 02:03:14;;;;;;;;;;;3.60;99.90;;;;;;5082799;27;20313;-61
2024/01/14 02:05:42;;;;;;;;;;;3.70;99.90;;;;;;5098954;27;19927;-60
2024/01/14 02:08:07;;;;;;;;;;;3.60;99.90;;;;;;5080614;27;19931;-60
2024/01/14 02:10:33;;;;;;;;;;;3.50;99.90;;;;;;5095502;27;19980;-61
2024/01/14 02:12:59;;;;;;;;;;;3.40;99.90;;;;;;5081308;27;19931;-61
2024/01/14 02:15:25;;;;;;;;;;;3.50;99.90;;;;;;5087265;27;19977;-61
2024/01/14 02:17:50;;;;;;;;;;;3.50;99.90;;;;;;5099490;27;19930;-61
2024/01/14 02:20:16;;;;;;;;;;;3.30;99.90;;;;;;5081956;27;19928;-61
2024/01/14 02:22:43;;;;;;;;;;;3.30;99.90;;;;;;5103460;27;20577;-61
2024/01/14 02:25:09;;;;;;;;;;;3.30;99.90;;;;;;5090769;27;20700;-61
2024/01/14 02:27:35;;;;;;;;;;;3.30;99.90;;;;;;5084262;27;19920;-61
2024/01/14 02:30:01;;;;;;;;;;;3.30;99.90;;;;;;5105183;27;20493;-61
2024/01/14 02:32:27;;;;;;;;;;;3.30;99.90;;;;;;5110339;27;20022;-61
2024/01/14 02:34:52;;;;;;;;;;;3.30;99.90;;;;;;5107832;27;19928;-61
2024/01/14 02:37:18;;;;;;;;;;;3.30;99.90;;;;;;5086706;27;19945;-62
2024/01/14 02:39:44;;;;;;;;;;;3.40;99.90;;;;;;5104955;27;19934;-62
2024/01/14 02:42:09;;;;;;;;;;;3.40;99.90;;;;;;5085146;27;19923;-61
2024/01/14 02:44:35;;;;;;;;;;;3.40;99.90;;;;;;5111977;27;20385;-61
2024/01/14 02:47:00;;;;;;;;;;;3.40;99.90;;;;;;5109505;27;20089;-60
2024/01/14 02:49:26;;;;;;;;;;;3.40;99.90;;;;;;5104033;27;19938;-61
2024/01/14 02:51:52;;;;;;;;;;;3.30;99.90;;;;;;5102737;27;19923;-61
2024/01/14 02:54:17;;;;;;;;;;;3.30;99.90;;;;;;5102779;27;20334;-61
2024/01/14 02:56:43;;;;;;;;;;;3.30;99.90;;;;;;5086750;28;20826;-61
2024/01/14 02:59:09;;;;;;;;;;;3.30;99.90;;;;;;5099342;27;19923;-61
2024/01/14 03:01:42;;;;;;;;;;;3.30;99.90;;;;;;5095476;28;19962;-61
2024/01/14 03:04:07;;;;;;;;;;;3.30;99.90;;;;;;5099315;28;20116;-60
2024/01/14 03:06:33;;;;;;;;;;;3.30;99.90;;;;;;5081167;28;20369;-61
2024/01/14 03:08:58;;;;;;;;;;;3.40;99.90;;;;;;5084588;28;19927;-62
2024/01/14 03:11:24;;;;;;;;;;;3.30;99.90;;;;;;5081364;28;19980;-61
2024/01/14 03:13:49;;;;;;;;;;;3.30;99.90;;;;;;5103888;28;20398;-61
2024/01/14 03:16:15;;;;;;;;;;;3.30;99.90;;;;;;5098184;28;19927;-62
2024/01/14 03:18:41;;;;;;;;;;;3.30;99.90;;;;;;5087339;28;19924;-61
2024/01/14 03:21:08;;;;;;;;;;;3.30;99.90;;;;;;5078973;28;19950;-61
2024/01/14 03:23:33;;;;;;;;;;;3.40;99.90;;;;;;5096855;27;19927;-61
2024/01/14 03:25:59;;;;;;;;;;;3.40;99.90;;;;;;5080701;28;20801;-60
2024/01/14 03:28:24;;;;;;;;;;;3.30;99.90;;;;;;5099645;28;19929;-61
2024/01/14 03:30:50;;;;;;;;;;;3.30;99.90;;;;;;5094414;28;19927;-61
2024/01/14 03:33:16;;;;;;;;;;;3.30;99.90;;;;;;5090380;28;21168;-61
2024/01/14 03:35:41;;;;;;;;;;;3.30;99.90;;;;;;5082328;28;19976;-61
2024/01/14 03:38:07;;;;;;;;;;;3.30;99.90;;;;;;5079437;28;20370;-61
2024/01/14 03:40:33;;;;;;;;;;;3.40;99.90;;;;;;5096880;28;19928;-61
2024/01/14 03:42:58;;;;;;;;;;;3.40;99.90;;;;;;5089359;28;19993;-61
2024/01/14 03:45:25;;;;;;;;;;;3.40;99.90;;;;;;5100511;28;19930;-61
2024/01/14 03:47:50;;;;;;;;;;;3.40;99.90;;;;;;5081102;28;19969;-61
2024/01/14 03:50:16;;;;;;;;;;;3.50;99.90;;;;;;5087634;28;20351;-60
2024/01/14 03:52:41;;;;;;;;;;;3.50;99.90;;;;;;5076403;28;19932;-61
2024/01/14 03:55:07;;;;;;;;;;;3.50;99.90;;;;;;5061294;28;19928;-61
2024/01/14 03:57:33;;;;;;;;;;;3.50;99.90;;;;;;5080324;28;19924;-61
2024/01/14 03:59:58;;;;;;;;;;;3.50;99.90;;;;;;5085263;28;19931;-61
2024/01/14 04:02:24;;;;;;;;;;;3.40;99.90;;;;;;5062883;28;19931;-61
2024/01/14 04:04:52;;;;;;;;;;;3.40;99.90;;;;;;5079623;28;20405;-61
2024/01/14 04:07:18;;;;;;;;;;;3.40;99.90;;;;;;5060689;28;19968;-62
2024/01/14 04:09:43;;;;;;;;;;;3.30;99.90;;;;;;5062234;28;20031;-62
2024/01/14 04:12:09;;;;;;;;;;;3.20;99.90;;;;;;5060938;28;19929;-61
2024/01/14 04:14:34;;;;;;;;;;;3.20;99.90;;;;;;5064749;28;19997;-60
2024/01/14 04:17:00;;;;;;;;;;;3.10;99.90;;;;;;5080228;28;19923;-61
2024/01/14 04:19:25;;;;;;;;;;;3.10;99.90;;;;;;5060639;28;19934;-60
2024/01/14 04:21:51;;;;;;;;;;;3.00;99.90;;;;;;5080778;28;19924;-61
2024/01/14 04:24:17;;;;;;;;;;;3.10;99.90;;;;;;5065216;28;20068;-60
2024/01/14 04:26:42;;;;;;;;;;;3.00;99.90;;;;;;5081665;28;19927;-61
2024/01/14 04:29:08;;;;;;;;;;;2.90;99.90;;;;;;5058751;28;20388;-61
2024/01/14 04:31:33;;;;;;;;;;;2.90;99.90;;;;;;5059201;28;19924;-61
2024/01/14 04:34:03;;;;;;;;;;;2.90;99.90;;;;;;5079080;28;19928;-61
2024/01/14 04:36:29;;;;;;;;;;;2.90;99.90;;;;;;5080363;28;19962;-60
2024/01/14 04:38:55;;;;;;;;;;;2.90;99.90;;;;;;5079876;28;20361;-61
2024/01/14 04:41:20;;;;;;;;;;;2.90;99.90;;;;;;5087233;28;20417;-61
2024/01/14 04:43:46;;;;;;;;;;;3.00;99.90;;;;;;5062686;28;19959;-60
2024/01/14 04:46:12;;;;;;;;;;;2.90;99.90;;;;;;5062924;28;19923;-61
2024/01/14 04:48:37;;;;;;;;;;;2.90;99.90;;;;;;5085961;28;19928;-62
2024/01/14 04:51:03;;;;;;;;;;;2.80;99.90;;;;;;5087066;28;19927;-61
2024/01/14 04:53:28;;;;;;;;;;;2.80;99.90;;;;;;5060389;28;19935;-61
2024/01/14 04:55:54;;;;;;;;;;;2.80;99.90;;;;;;5060828;28;19953;-61
2024/01/14 04:58:20;;;;;;;;;;;2.80;99.90;;;;;;5069538;28;19924;-61
2024/01/14 05:00:45;;;;;;;;;;;2.70;99.90;;;;;;5065181;28;19962;-61
2024/01/14 05:03:11;;;;;;;;;;;2.70;99.90;;;;;;5064268;28;20386;-61
2024/01/14 05:05:36;;;;;;;;;;;2.80;99.90;;;;;;5067475;28;20497;-60
2024/01/14 05:08:02;;;;;;;;;;;2.70;99.90;;;;;;5041176;28;19928;-61
2024/01/14 05:10:28;;;;;;;;;;;2.70;99.90;;;;;;5080674;28;20493;-61
2024/01/14 05:12:53;;;;;;;;;;;2.70;99.90;;;;;;5084370;28;19927;-60
2024/01/14 05:15:19;;;;;;;;;;;2.70;99.90;;;;;;5087388;28;19931;-60
2024/01/14 05:17:44;;;;;;;;;;;2.70;99.90;;;;;;5066969;28;20362;-61
2024/01/14 05:20:10;;;;;;;;;;;2.70;99.90;;;;;;5080946;28;19981;-62
2024/01/14 05:22:35;;;;;;;;;;;2.70;99.90;;;;;;5058701;28;19928;-61
2024/01/14 05:25:01;;;;;;;;;;;2.70;99.90;;;;;;5066824;28;20365;-61
2024/01/14 05:27:27;;;;;;;;;;;2.60;99.90;;;;;;5067481;28;19968;-62
2024/01/14 05:29:52;;;;;;;;;;;2.70;99.90;;;;;;5057385;28;20409;-61
2024/01/14 05:32:18;;;;;;;;;;;2.70;99.90;;;;;;5060938;28;19931;-62
2024/01/14 05:34:44;;;;;;;;;;;2.60;99.90;;;;;;5062852;28;20500;-61
2024/01/14 05:37:10;;;;;;;;;;;2.60;99.90;;;;;;5059611;28;19928;-61
2024/01/14 05:39:36;;;;;;;;;;;2.60;99.90;;;;;;5081865;28;19932;-61
2024/01/14 05:42:01;;;;;;;;;;;2.60;99.90;;;;;;5077217;28;20386;-61
2024/01/14 05:44:27;;;;;;;;;;;2.60;99.90;;;;;;5062260;28;19924;-61
2024/01/14 05:46:53;;;;;;;;;;;2.60;99.90;;;;;;5059151;28;19923;-62
2024/01/14 05:49:19;;;;;;;;;;;2.60;99.90;;;;;;5081586;28;21079;-60
2024/01/14 05:51:44;;;;;;;;;;;2.60;99.90;;;;;;5066987;28;19950;-61
2024/01/14 05:54:10;;;;;;;;;;;2.50;99.90;;;;;;5062518;28;20008;-62
2024/01/14 05:56:36;;;;;;;;;;;2.60;99.90;;;;;;5058064;28;19978;-61
2024/01/14 05:59:01;;;;;;;;;;;2.50;99.90;;;;;;5067389;28;20359;-61
2024/01/14 06:01:27;;;;;;;;;;;2.50;99.90;;;;;;5066226;28;19927;-61
2024/01/14 06:03:53;;;;;;;;;;;2.60;99.90;;;;;;5066164;28;19963;-62
2024/01/14 06:06:19;;;;;;;;;;;2.60;99.90;;;;;;5079266;28;19947;-61
2024/01/14 06:08:44;;;;;;;;;;;2.60;99.90;;;;;;5073883;28;20019;-60
2024/01/14 06:11:12;;;;;;;;;;;2.60;99.90;;;;;;5077659;28;19927;-60
2024/01/14 06:13:37;;;;;;;;;;;2.60;99.90;;;;;;5078373;28;19967;-61
2024/01/14 06:16:03;;;;;;;;;;;2.60;99.90;;;;;;5064097;28;20017;-62
2024/01/14 06:18:29;;;;;;;;;;;2.60;99.90;;;;;;5058956;28;19924;-61
2024/01/14 06:21:00;;;;;;;;;;;2.60;99.90;;;;;;5077787;28;19924;-61
2024/01/14 06:23:27;;;;;;;;;;;2.70;99.90;;;;;;5078020;28;19982;-60
2024/01/14 06:25:52;;;;;;;;;;;2.60;99.90;;;;;;5059446;28;20015;-62
2024/01/14 06:28:18;;;;;;;;;;;2.60;99.90;;;;;;5075022;28;19966;-61
2024/01/14 06:30:44;;;;;;;;;;;2.60;99.90;;;;;;5061544;28;20285;-61
2024/01/14 06:33:09;;;;;;;;;;;2.60;99.90;;;;;;5078952;28;19932;-62
2024/01/14 06:35:35;;;;;;;;;;;2.60;99.90;;;;;;5058443;28;19935;-60
2024/01/14 06:38:01;;;;;;;;;;;2.60;99.90;;;;;;5078055;28;19960;-61
2024/01/14 06:40:26;;;;;;;;;;;2.50;99.90;;;;;;5061833;28;19935;-61
2024/01/14 06:42:52;;;;;;;;;;;2.50;99.90;;;;;;5064272;28;19927;-60
2024/01/14 06:45:18;;;;;;;;;;;2.50;99.90;;;;;;5070009;28;19923;-61
2024/01/14 06:47:44;;;;;;;;;;;2.50;99.90;;;;;;5046553;28;20389;-61
2024/01/14 06:50:10;;;;;;;;;;;2.50;99.90;;;;;;5077698;28;20372;-61
2024/01/14 06:52:36;;;;;;;;;;;2.50;99.90;;;;;;5059646;28;19932;-61
2024/01/14 06:55:04;;;;;;;;;;;2.40;99.90;;;;;;5062618;28;19919;-61
2024/01/14 06:57:30;;;;;;;;;;;2.40;99.90;;;;;;5080366;28;19948;-60
2024/01/14 06:59:55;;;;;;;;;;;2.40;99.90;;;;;;5078932;28;19928;-61
2024/01/14 07:02:21;;;;;;;;;;;2.40;99.90;;;;;;5054397;28;20448;-61
2024/01/14 07:04:46;;;;;;;;;;;2.40;99.90;;;;;;5074447;28;19973;-61
2024/01/14 07:07:12;;;;;;;;;;;2.40;99.90;;;;;;5057400;28;19923;-61
2024/01/14 07:09:38;;;;;;;;;;;2.40;99.90;;;;;;5055367;28;21587;-59
2024/01/14 07:12:03;;;;;;;;;;;2.40;99.90;;;;;;5052967;28;19928;-62
2024/01/14 07:14:29;;;;;;;;;;;2.40;99.90;;;;;;5056509;28;19949;-62
2024/01/14 07:16:57;;;;;;;;;;;2.40;99.90;;;;;;5078839;28;20378;-61
2024/01/14 07:19:23;;;;;;;;;;;2.40;99.90;;;;;;5065706;28;19949;-61
2024/01/14 07:21:48;;;;;;;;;;;2.30;99.90;;;;;;5066330;28;19946;-61
2024/01/14 07:24:14;;;;;;;;;;;2.40;99.90;;;;;;5065125;28;19935;-60
2024/01/14 07:26:40;;;;;;;;;;;2.30;99.90;;;;;;5063985;28;20992;-62
2024/01/14 07:29:05;;;;;;;;;;;2.30;99.90;;;;;;5078929;28;19928;-61
2024/01/14 07:31:31;;;;;;;;;;;2.30;99.90;;;;;;5061473;28;20590;-61
2024/01/14 07:33:57;;;;;;;;;;;2.40;99.90;;;;;;5080227;28;19928;-61
2024/01/14 07:36:23;;;;;;;;;;;2.40;99.90;;;;;;5069273;28;19927;-61
2024/01/14 07:38:52;;;;;;;;;;;2.40;99.90;;;;;;5046657;28;19947;-61
2024/01/14 07:41:18;;;;;;;;;;;2.40;99.90;;;;;;5046175;28;20287;-61
2024/01/14 07:43:43;;;;;;;;;;;2.40;99.90;;;;;;5085234;28;19941;-61
2024/01/14 07:46:09;;;;;;;;;;;2.40;99.90;;;;;;5088745;28;19934;-61
2024/01/14 07:48:35;;;;;;;;;;;2.50;99.90;;;;;;5089592;28;20298;-61
2024/01/14 07:51:01;;;;;;;;;;;2.50;99.90;;;;;;5102688;27;19973;-61
2024/01/14 07:53:27;;;;;;;;;;;2.50;99.90;;;;;;5087853;27;20584;-61
2024/01/14 07:55:52;;;;;;;;;;;2.50;99.90;;;;;;5108183;27;19961;-60
2024/01/14 07:58:18;;;;;;;;;;;2.40;99.90;;;;;;5109350;27;19923;-61
2024/01/14 08:00:44;;;;;;;;;;;2.40;99.90;;;;;;5107689;27;19988;-61
2024/01/14 08:03:10;;;;;;;;;;;2.50;99.90;;;;;;5110220;27;19973;-61
2024/01/14 08:05:35;;;;;;;;;;;2.50;99.90;;;;;;5090856;27;20445;-61
2024/01/14 08:08:02;;;;;;;;;;;2.40;99.90;;;;;;5105329;27;20366;-61
2024/01/14 08:10:27;;;;;;;;;;;2.40;99.90;;;;;;5090435;27;19930;-60
2024/01/14 08:12:53;;;;;;;;;;;2.30;99.90;;;;;;5103604;27;20320;-61
2024/01/14 08:15:18;;;;;;;;;;;2.30;99.90;;;;;;5086495;27;20014;-61
2024/01/14 08:17:44;;;;;;;;;;;2.30;99.90;;;;;;5072677;27;20333;-61
2024/01/14 08:20:11;;;;;;;;;;;2.30;99.90;;;;;;5078386;27;19928;-61
2024/01/14 08:22:39;;;;;;;;;;;2.20;99.90;;;;;;5078934;27;20359;-60
2024/01/14 08:25:05;;;;;;;;;;;2.20;99.90;;;;;;5099975;27;20167;-61
2024/01/14 08:27:31;;;;;;;;;;;2.20;99.90;;;;;;5101612;27;19996;-62
2024/01/14 08:29:57;;;;;;;;;;;2.20;99.90;;;;;;5096242;27;20398;-62
2024/01/14 08:32:23;;;;;;;;;;;2.20;99.90;;;;;;5095818;27;19923;-61
2024/01/14 08:34:48;;;;;;;;;;;2.10;99.90;;;;;;5094570;27;20424;-61
2024/01/14 08:37:14;;;;;;;;;;;2.20;99.90;;;;;;5098551;27;19928;-62
2024/01/14 08:39:39;;;;;;;;;;;2.20;99.90;;;;;;5094245;27;19931;-61
2024/01/14 08:42:05;;;;;;;;;;;2.20;99.90;;;;;;5099347;27;19980;-61
2024/01/14 08:44:31;;;;;;;;;;;2.20;99.90;;;;;;5096127;27;19973;-61
2024/01/14 08:46:56;;;;;;;;;;;2.20;99.90;;;;;;5081718;27;20435;-60
2024/01/14 08:49:24;;;;;;;;;;;2.20;99.90;;;;;;5079949;27;19920;-61
2024/01/14 08:51:50;;;;;;;;;;;2.10;99.90;;;;;;5059789;28;20455;-61
2024/01/14 08:54:17;;;;;;;;;;;2.10;99.90;;;;;;5060763;28;19931;-62
2024/01/14 08:56:43;;;;;;;;;;;2.20;99.90;;;;;;5058551;28;19935;-61
2024/01/14 08:59:08;;;;;;;;;;;2.20;99.90;;;;;;5079725;28;20414;-61
2024/01/14 09:01:34;;;;;;;;;;;2.20;99.90;;;;;;5079059;28;19939;-61
2024/01/14 09:04:00;;;;;;;;;;;2.30;99.90;;;;;;5083890;28;19924;-61
2024/01/14 09:06:26;;;;;;;;;;;2.30;99.90;;;;;;5082591;28;19928;-61
2024/01/14 09:08:51;;;;;;;;;;;2.30;99.90;;;;;;5044339;28;19923;-61
2024/01/14 09:11:17;;;;;;;;;;;2.30;99.90;;;;;;5081122;28;19919;-61
2024/01/14 09:13:45;;;;;;;;;;;2.40;99.90;;;;;;5083343;28;19927;-62
2024/01/14 09:16:11;;;;;;;;;;;2.40;99.90;;;;;;5085991;28;19927;-60
2024/01/14 09:18:37;;;;;;;;;;;2.40;99.90;;;;;;5078917;28;20644;-61
2024/01/14 09:21:03;;;;;;;;;;;2.50;99.90;;;;;;5079387;28;20011;-61
2024/01/14 09:23:29;;;;;;;;;;;2.50;99.90;;;;;;5045949;28;19931;-61
2024/01/14 09:25:56;;;;;;;;;;;2.60;99.90;;;;;;5072972;28;20175;-61
2024/01/14 09:28:24;;;;;;;;;;;2.60;99.90;;;;;;5067014;28;20015;-61
2024/01/14 09:30:50;;;;;;;;;;;2.60;99.90;;;;;;5060722;28;19952;-61
2024/01/14 09:33:16;;;;;;;;;;;2.80;99.90;;;;;;5075413;28;19935;-61
2024/01/14 09:35:42;;;;;;;;;;;2.80;99.90;;;;;;5058408;28;20663;-61
2024/01/14 09:38:08;;;;;;;;;;;2.80;99.90;;;;;;5057788;28;19965;-61
2024/01/14 09:40:34;;;;;;;;;;;2.90;99.90;;;;;;5073674;28;20050;-59
2024/01/14 09:43:02;;;;;;;;;;;3.00;99.90;;;;;;5079695;28;19931;-61
2024/01/14 09:45:32;;;;;;;;;;;3.10;99.90;;;;;;5076195;28;20690;-61
2024/01/14 09:48:01;;;;;;;;;;;3.10;99.90;;;;;;5056724;28;20778;-61
2024/01/14 09:50:27;;;;;;;;;;;3.20;99.90;;;;;;5060939;28;19927;-60
2024/01/14 09:52:55;;;;;;;;;;;3.30;99.90;;;;;;5065981;28;20042;-60
2024/01/14 09:55:20;;;;;;;;;;;3.40;99.90;;;;;;5079326;28;19930;-61
2024/01/14 09:57:48;;;;;;;;;;;3.40;99.90;;;;;;5078411;28;19927;-60
2024/01/14 10:00:14;;;;;;;;;;;3.50;99.90;;;;;;5081534;27;19935;-61
2024/01/14 10:02:40;;;;;;;;;;;3.60;99.90;;;;;;5079427;28;19924;-60
2024/01/14 10:05:07;;;;;;;;;;;3.70;99.90;;;;;;5073467;27;19928;-60
2024/01/14 10:07:33;;;;;;;;;;;3.80;99.90;;;;;;5071880;28;19928;-61
2024/01/14 10:09:59;;;;;;;;;;;3.90;99.90;;;;;;5069047;28;19928;-61
2024/01/14 10:12:26;;;;;;;;;;;3.90;99.90;;;;;;5077687;28;19932;-59
2024/01/14 10:15:01;;;;;;;;;;;4.00;99.90;;;;;;5074589;28;19924;-61
2024/01/14 10:17:27;;;;;;;;;;;4.10;99.90;;;;;;5068868;28;19980;-61
2024/01/14 10:19:58;;;;;;;;;;;4.20;99.90;;;;;;5082612;28;20386;-61
2024/01/14 10:22:27;;;;;;;;;;;4.30;99.90;;;;;;5077987;28;19931;-59
2024/01/14 10:24:53;;;;;;;;;;;4.40;99.90;;;;;;5077244;28;20267;-61
2024/01/14 10:27:23;;;;;;;;;;;4.50;99.90;;;;;;5082569;28;19924;-61
2024/01/14 10:29:49;;;;;;;;;;;4.60;99.90;;;;;;5080904;28;20315;-61
2024/01/14 10:32:15;;;;;;;;;;;4.80;99.90;;;;;;5071297;28;19983;-60
2024/01/14 10:34:41;;;;;;;;;;;4.80;99.90;;;;;;5077145;28;19928;-60
2024/01/14 10:37:07;;;;;;;;;;;5.00;99.90;;;;;;5076539;28;28361;-60
2024/01/14 10:39:33;;;;;;;;;;;5.00;99.90;;;;;;5071125;28;20509;-60
2024/01/14 10:42:00;;;;;;;;;;;5.10;99.90;;;;;;5073686;28;20291;-60
2024/01/14 10:44:25;;;;;;;;;;;5.20;99.90;;;;;;5076247;28;20042;-60
2024/01/14 10:46:52;;;;;;;;;;;5.30;99.90;;;;;;5075595;28;20358;-61
2024/01/14 10:49:20;;;;;;;;;;;5.40;99.90;;;;;;5077117;28;20382;-61
2024/01/14 10:51:48;;;;;;;;;;;5.50;99.90;;;;;;5093514;27;19927;-60
2024/01/14 10:54:32;;;;;;;;;;;5.50;99.90;;;;;;5099682;27;19934;-61
2024/01/14 10:57:17;;;;;;;;;;;5.60;99.90;;;;;;5100969;27;19919;-61
2024/01/14 10:59:43;;;;;;;;;;;5.70;99.90;;;;;;5082766;27;19929;-61
2024/01/14 11:02:17;;;;;;;;;;;5.60;99.90;;;;;;5101143;27;19930;-61
2024/01/14 11:04:43;;;;;;;;;;;5.70;99.90;;;;;;5070904;28;19919;-61
2024/01/14 11:07:09;;;;;;;;;;;5.60;99.90;;;;;;5064440;28;20053;-59
2024/01/14 11:09:35;;;;;;;;;;;5.60;99.90;;;;;;5095639;27;20578;-60
2024/01/14 11:12:03;;;;;;;;;;;5.60;99.90;;;;;;5097355;27;19932;-60
2024/01/14 11:14:34;;;;;;;;;;;5.60;99.90;;;;;;5091639;28;19955;-61
2024/01/14 11:17:09;;;;;;;;;;;5.60;99.90;;;;;;5098116;27;19938;-61
2024/01/14 11:19:36;;;;;;;;;;;5.60;99.90;;;;;;5090171;28;19924;-60
2024/01/14 11:22:13;;;;;;;;;;;5.50;99.90;;;;;;5077851;28;19919;-60
2024/01/14 11:24:39;;;;;;;;;;;5.50;99.90;;;;;;5095636;27;19926;-60
2024/01/14 11:27:04;;;;;;;;;;;5.40;99.90;;;;;;5073704;28;19932;-61
2024/01/14 11:29:34;;;;;;;;;;;5.40;99.90;;;;;;5074270;28;19924;-61
2024/01/14 11:32:05;;;;;;;;;;;5.50;99.90;;;;;;5079658;28;19938;-60
2024/01/14 11:34:47;;;;;;;;;;;5.50;99.90;;;;;;5073689;28;20329;-61
2024/01/14 11:37:32;;;;;;;;;;;5.50;99.90;;;;;;5095241;28;19924;-60
2024/01/14 11:40:07;;;;;;;;;;;5.60;99.90;;;;;;5093412;27;19967;-60
2024/01/14 11:42:33;;;;;;;;;;;5.70;99.90;;;;;;5072772;28;19928;-60
2024/01/14 11:45:02;;;;;;;;;;;5.70;99.90;;;;;;5095141;27;19942;-61
2024/01/14 11:47:37;;;;;;;;;;;5.80;99.90;;;;;;5069005;28;20332;-60
2024/01/14 11:50:04;;;;;;;;;;;5.80;99.90;;;;;;5079286;28;21391;-61
2024/01/14 11:52:29;;;;;;;;;;;5.80;99.90;;;;;;5097547;27;20071;-60
2024/01/14 11:54:55;;;;;;;;;;;5.70;99.90;;;;;;5075045;27;19927;-60
2024/01/14 11:57:21;;;;;;;;;;;5.70;99.90;;;;;;5048605;27;20386;-60
2024/01/14 11:59:48;;;;;;;;;;;5.60;99.90;;;;;;5094071;28;20212;-61
2024/01/14 12:02:15;;;;;;;;;;;5.70;99.90;;;;;;5097612;27;20377;-61
2024/01/14 12:04:40;;;;;;;;;;;5.70;99.90;;;;;;5100110;28;19923;-60
2024/01/14 12:07:06;;;;;;;;;;;5.70;99.90;;;;;;5099210;27;19928;-61
2024/01/14 12:09:32;;;;;;;;;;;5.90;99.90;;;;;;5089591;27;19923;-61
2024/01/14 12:11:58;;;;;;;;;;;6.00;99.90;;;;;;5082552;28;19928;-61
2024/01/14 12:14:23;;;;;;;;;;;6.10;99.90;;;;;;5077495;28;19962;-61
2024/01/14 12:16:49;;;;;;;;;;;6.20;99.90;;;;;;5074516;28;19975;-61
2024/01/14 12:19:20;;;;;;;;;;;6.20;99.90;;;;;;5080407;27;20412;-61
2024/01/14 12:21:46;;;;;;;;;;;6.30;99.90;;;;;;5093733;27;19934;-60
2024/01/14 12:24:12;;;;;;;;;;;6.30;99.90;;;;;;5091828;27;19935;-61
2024/01/14 12:26:38;;;;;;;;;;;6.30;99.90;;;;;;5080346;27;20452;-61
2024/01/14 12:29:04;;;;;;;;;;;6.30;99.90;;;;;;5102783;27;19971;-61
2024/01/14 12:31:31;;;;;;;;;;;6.20;99.90;;;;;;5079980;27;19965;-61
2024/01/14 12:34:01;;;;;;;;;;;6.20;99.90;;;;;;5085735;27;19928;-61
2024/01/14 12:36:26;;;;;;;;;;;6.30;99.90;;;;;;5100674;27;19926;-60
2024/01/14 12:38:52;;;;;;;;;;;6.20;99.90;;;;;;5098314;27;19924;-61
2024/01/14 12:41:18;;;;;;;;;;;6.20;99.90;;;;;;5098038;27;19933;-61
2024/01/14 12:43:44;;;;;;;;;;;6.10;99.90;;;;;;5097104;27;19967;-60
2024/01/14 12:46:09;;;;;;;;;;;6.10;99.90;;;;;;5097631;27;19924;-61
2024/01/14 12:48:35;;;;;;;;;;;6.00;99.90;;;;;;5076664;27;19970;-60
2024/01/14 12:51:00;;;;;;;;;;;6.00;99.90;;;;;;5072449;27;19939;-60
2024/01/14 12:53:27;;;;;;;;;;;6.00;99.90;;;;;;5045368;27;20050;-60
2024/01/14 12:56:06;;;;;;;;;;;6.00;99.90;;;;;;5076539;27;20206;-61
2024/01/14 12:58:32;;;;;;;;;;;6.00;99.90;;;;;;5090175;27;19968;-60
2024/01/14 13:00:58;;;;;;;;;;;6.00;99.90;;;;;;5068133;27;19927;-61
2024/01/14 13:03:24;;;;;;;;;;;6.00;99.90;;;;;;5068230;27;19961;-61
2024/01/14 13:05:50;;;;;;;;;;;6.00;99.90;;;;;;5078591;27;19973;-60
2024/01/14 13:08:15;;;;;;;;;;;6.00;99.90;;;;;;5071032;27;20566;-60
2024/01/14 13:10:41;;;;;;;;;;;6.00;99.90;;;;;;5076009;27;19947;-61
2024/01/14 13:13:06;;;;;;;;;;;5.90;99.90;;;;;;5091166;27;19928;-61
2024/01/14 13:15:32;;;;;;;;;;;5.90;99.90;;;;;;5099607;27;19923;-61
2024/01/14 13:17:59;;;;;;;;;;;5.70;99.90;;;;;;5085129;27;20331;-60
2024/01/14 13:20:25;;;;;;;;;;;5.50;99.90;;;;;;5064527;27;19973;-60
2024/01/14 13:22:50;;;;;;;;;;;5.40;99.90;;;;;;5086349;27;20646;-60
2024/01/14 13:25:16;;;;;;;;;;;5.30;99.90;;;;;;5097564;27;19919;-60
2024/01/14 13:27:42;;;;;;;;;;;5.10;99.90;;;;;;5091424;27;19927;-61
2024/01/14 13:30:08;;;;;;;;;;;5.20;99.90;;;;;;5073735;27;19924;-61
2024/01/14 13:32:36;;;;;;;;;;;5.20;99.90;;;;;;5091667;27;19923;-61
2024/01/14 13:35:04;;;;;;;;;;;5.10;99.90;;;;;;5098351;27;19920;-61
2024/01/14 13:37:30;;;;;;;;;;;5.10;99.90;;;;;;5100409;27;19979;-61
2024/01/14 13:39:56;;;;;;;;;;;5.10;99.90;;;;;;5095043;27;20366;-59
2024/01/14 13:42:21;;;;;;;;;;;5.10;99.90;;;;;;5073848;27;19923;-61
2024/01/14 13:44:47;;;;;;;;;;;5.10;99.90;;;;;;5091651;27;19920;-61
2024/01/14 13:47:13;;;;;;;;;;;5.00;99.90;;;;;;5080587;27;21562;-61
2024/01/14 13:49:38;;;;;;;;;;;5.00;99.90;;;;;;5100143;27;20283;-61
2024/01/14 13:52:04;;;;;;;;;;;5.00;99.90;;;;;;5101297;27;20019;-61
2024/01/14 13:54:30;;;;;;;;;;;5.00;99.90;;;;;;5081923;27;20408;-61
2024/01/14 13:56:56;;;;;;;;;;;5.00;99.90;;;;;;5094836;27;19928;-60
2024/01/14 13:59:22;;;;;;;;;;;5.00;99.90;;;;;;5100613;27;19924;-60
2024/01/14 14:01:48;;;;;;;;;;;5.00;99.90;;;;;;5088453;27;19941;-61
2024/01/14 14:04:14;;;;;;;;;;;5.00;99.90;;;;;;5084191;27;20018;-60
2024/01/14 14:06:39;;;;;;;;;;;5.00;99.90;;;;;;5079729;27;19927;-60
2024/01/14 14:09:08;;;;;;;;;;;5.10;99.90;;;;;;5081037;27;20043;-60
2024/01/14 14:11:34;;;;;;;;;;;5.10;99.90;;;;;;5083857;27;20026;-59
2024/01/14 14:14:00;;;;;;;;;;;5.00;99.90;;;;;;5082670;27;19927;-61
2024/01/14 14:16:26;;;;;;;;;;;5.00;99.90;;;;;;5088130;27;19927;-59
2024/01/14 14:18:51;;;;;;;;;;;4.90;99.90;;;;;;5103613;27;20049;-60
2024/01/14 14:21:17;;;;;;;;;;;4.90;99.90;;;;;;5105338;27;20035;-60
2024/01/14 14:23:43;;;;;;;;;;;4.90;99.90;;;;;;5099111;27;19924;-61
2024/01/14 14:26:08;;;;;;;;;;;4.90;99.90;;;;;;5074385;27;19936;-59